Terminal Aerodrome Forecast
Issued by NWS Cleveland, OH

Home | Current Version | Previous Version | Text Only | Print | Product List | Glossary On
Versions: 1 2 3 4 5 6 7 8 9 10 11 12 13 14 15 16 17 18 19 20 21 22 23 24
000
FTUS41 KCLE 190330 AAA
TAFCLE
TAF AMD
KCLE 190330Z 1904/2006 21015G25KT P6SM SKC WS020/24040KT
     FM190800 21012KT P6SM SCT250 WS020/24040KT
     FM191400 21015G25KT P6SM BKN250=

USA.gov is the U.S. government's official web portal to all federal, state and local government web resources and services.